Time;durP1;ratioP1;P1;durP2;ratioP2;P2;SDS_P1;SDS_P2;PMS_P1;PMS_P2;Temp;Humidity;BMP_temperature;BMP_pressure;BME280_temperature;BME280_humidity;BME280_pressure;Samples;Min_cycle;Max_cycle;Signal;HPM_P1;HPM_P2
2023/08/03 00:00:52;;;;;;;1.00;0.60;;;19.10;99.90;;;;;;4984859;28;20175;-66
2023/08/03 00:03:17;;;;;;;1.05;0.50;;;19.10;99.90;;;;;;4993442;28;20259;-64
2023/08/03 00:05:43;;;;;;;1.33;0.57;;;19.10;99.90;;;;;;5010373;28;20229;-65
2023/08/03 00:08:10;;;;;;;1.73;0.68;;;19.10;99.90;;;;;;4991259;28;20229;-65
2023/08/03 00:10:37;;;;;;;1.13;0.65;;;19.10;99.90;;;;;;4991398;28;20183;-66
2023/08/03 00:13:03;;;;;;;0.93;0.50;;;19.10;99.90;;;;;;4990939;28;20186;-67
2023/08/03 00:15:31;;;;;;;1.88;0.65;;;19.00;99.90;;;;;;4992455;28;20290;-65
2023/08/03 00:17:57;;;;;;;0.73;0.50;;;19.00;99.90;;;;;;4992428;28;20197;-66
2023/08/03 00:20:22;;;;;;;2.85;0.98;;;19.00;99.90;;;;;;4987413;28;20262;-65
2023/08/03 00:22:50;;;;;;;1.45;0.60;;;19.00;99.90;;;;;;4992754;28;20255;-64
2023/08/03 00:25:18;;;;;;;1.00;0.50;;;19.00;99.90;;;;;;4992468;28;20802;-65
2023/08/03 00:27:43;;;;;;;2.60;0.70;;;19.00;99.90;;;;;;4991752;28;20183;-65
2023/08/03 00:30:12;;;;;;;3.03;0.57;;;19.00;99.90;;;;;;4993478;28;20325;-64
2023/08/03 00:32:37;;;;;;;1.58;0.50;;;19.00;99.90;;;;;;4993077;28;20203;-64
2023/08/03 00:35:03;;;;;;;1.65;0.70;;;19.00;99.90;;;;;;4993073;28;20194;-65
2023/08/03 00:37:29;;;;;;;1.77;0.73;;;19.00;99.90;;;;;;4991963;28;20175;-67
2023/08/03 00:39:55;;;;;;;4.00;1.10;;;19.00;99.90;;;;;;4989824;28;20179;-65
2023/08/03 00:42:20;;;;;;;1.70;0.70;;;19.10;99.90;;;;;;5002686;28;20199;-64
2023/08/03 00:44:48;;;;;;;1.50;0.47;;;19.10;99.90;;;;;;4990461;28;20275;-64
2023/08/03 00:47:17;;;;;;;2.78;0.82;;;19.10;99.90;;;;;;4989580;28;20202;-66
2023/08/03 00:49:45;;;;;;;1.35;0.50;;;19.20;99.90;;;;;;4990267;28;20211;-65
2023/08/03 00:52:10;;;;;;;0.63;0.40;;;19.20;99.90;;;;;;4991348;28;20398;-65
2023/08/03 00:54:37;;;;;;;1.13;0.50;;;19.20;99.90;;;;;;4987365;28;20176;-64
2023/08/03 00:57:05;;;;;;;1.35;0.50;;;19.20;99.90;;;;;;4992358;28;20207;-66
2023/08/03 00:59:34;;;;;;;1.73;0.73;;;19.20;99.90;;;;;;4992641;28;20206;-64
2023/08/03 01:02:03;;;;;;;1.80;0.70;;;19.20;99.90;;;;;;4990841;28;20278;-66
2023/08/03 01:04:29;;;;;;;3.20;0.70;;;19.20;99.90;;;;;;4992353;28;20233;-66
2023/08/03 01:06:54;;;;;;;1.70;0.80;;;19.30;99.90;;;;;;4989450;28;20187;-66
2023/08/03 01:09:20;;;;;;;1.48;0.47;;;19.30;99.90;;;;;;4984035;28;20234;-65
2023/08/03 01:11:49;;;;;;;1.48;0.57;;;19.30;99.90;;;;;;4993767;28;20195;-64
2023/08/03 01:14:17;;;;;;;1.67;0.70;;;19.30;99.90;;;;;;4988084;28;20211;-64
2023/08/03 01:16:45;;;;;;;1.73;0.60;;;19.30;99.90;;;;;;4982497;28;20457;-65
2023/08/03 01:19:12;;;;;;;1.48;0.52;;;19.30;99.90;;;;;;4993739;28;20172;-64
2023/08/03 01:21:40;;;;;;;1.90;0.60;;;19.30;99.90;;;;;;4993429;28;20198;-65
2023/08/03 01:24:10;;;;;;;1.33;0.70;;;19.30;99.90;;;;;;4985697;28;20198;-65
2023/08/03 01:26:36;;;;;;;2.08;0.70;;;19.30;99.90;;;;;;4992180;28;20191;-65
2023/08/03 01:29:02;;;;;;;1.10;0.50;;;19.30;99.90;;;;;;4993288;28;20195;-64
2023/08/03 01:31:27;;;;;;;0.57;0.43;;;19.40;99.90;;;;;;4989607;28;20203;-66
2023/08/03 01:33:53;;;;;;;1.70;0.70;;;19.40;99.90;;;;;;4997289;28;20177;-66
2023/08/03 01:36:19;;;;;;;1.55;0.65;;;19.40;99.90;;;;;;4993934;28;20231;-66
2023/08/03 01:38:53;;;;;;;1.52;0.47;;;19.40;99.90;;;;;;4991215;28;20217;-65
2023/08/03 01:41:42;;;;;;;1.00;0.50;;;19.40;99.90;;;;;;4990921;28;20189;-65
2023/08/03 01:44:23;;;;;;;0.50;0.43;;;19.40;99.90;;;;;;4987716;28;20183;-67
2023/08/03 01:46:49;;;;;;;1.48;0.57;;;19.40;99.90;;;;;;4974728;28;20184;-66
2023/08/03 01:49:16;;;;;;;1.05;0.40;;;19.40;99.90;;;;;;4981553;28;20219;-65
2023/08/03 01:51:43;;;;;;;1.20;0.50;;;19.40;99.90;;;;;;4982549;28;20199;-64
2023/08/03 01:54:12;;;;;;;2.90;0.60;;;19.50;99.90;;;;;;4993446;28;20262;-66
2023/08/03 01:56:38;;;;;;;1.33;0.50;;;19.50;99.90;;;;;;4990834;28;20223;-65
2023/08/03 01:59:04;;;;;;;1.75;0.50;;;19.40;99.90;;;;;;4994175;28;20183;-64
2023/08/03 02:01:32;;;;;;;0.85;0.60;;;19.40;99.90;;;;;;4994106;28;20204;-65
2023/08/03 02:04:02;;;;;;;0.40;0.40;;;19.50;99.90;;;;;;4993322;28;20283;-65
2023/08/03 02:06:27;;;;;;;1.00;0.60;;;19.50;99.90;;;;;;4987052;28;20394;-65
2023/08/03 02:08:53;;;;;;;1.20;0.70;;;19.50;99.90;;;;;;4995238;28;20222;-65
2023/08/03 02:11:19;;;;;;;0.98;0.50;;;19.50;99.90;;;;;;4993608;28;20203;-64
2023/08/03 02:13:44;;;;;;;2.13;0.50;;;19.50;99.90;;;;;;4993463;28;20448;-65
2023/08/03 02:16:10;;;;;;;0.40;0.40;;;19.50;99.90;;;;;;5007426;28;20171;-65
2023/08/03 02:18:39;;;;;;;0.98;0.43;;;19.50;99.90;;;;;;4996506;28;20182;-66
2023/08/03 02:21:11;;;;;;;1.27;0.50;;;19.60;99.90;;;;;;4992745;28;20275;-64
2023/08/03 02:23:39;;;;;;;1.13;0.60;;;19.60;99.90;;;;;;4993535;28;20416;-65
2023/08/03 02:26:08;;;;;;;1.48;0.57;;;19.60;99.90;;;;;;4992769;28;20228;-65
2023/08/03 02:28:34;;;;;;;1.17;0.50;;;19.60;99.90;;;;;;4994158;28;20207;-65
2023/08/03 02:31:02;;;;;;;0.82;0.40;;;19.60;99.90;;;;;;4993268;28;20226;-66
2023/08/03 02:33:27;;;;;;;0.77;0.40;;;19.60;99.90;;;;;;4992949;28;20274;-66
2023/08/03 02:35:58;;;;;;;0.55;0.40;;;19.60;99.90;;;;;;4991765;28;20191;-65
2023/08/03 02:38:24;;;;;;;0.82;0.40;;;19.60;99.90;;;;;;5010354;28;20180;-66
2023/08/03 02:40:50;;;;;;;0.43;0.35;;;19.60;99.90;;;;;;4988565;28;20365;-66
2023/08/03 02:43:16;;;;;;;1.23;0.60;;;19.60;99.90;;;;;;4993789;28;20180;-65
2023/08/03 02:46:15;;;;;;;0.70;0.45;;;19.60;99.90;;;;;;5002444;28;20184;-67
2023/08/03 02:48:47;;;;;;;0.30;0.30;;;19.60;99.90;;;;;;4994449;28;20234;-68
2023/08/03 02:51:40;;;;;;;0.47;0.47;;;19.60;99.90;;;;;;4991073;28;20204;-67
2023/08/03 02:57:17;;;;;;;0.28;0.20;;;19.50;99.90;;;;;;4992421;28;20439;-66
2023/08/03 02:59:42;;;;;;;1.70;0.63;;;19.40;99.90;;;;;;4992121;28;20168;-65
2023/08/03 03:02:37;;;;;;;0.95;0.50;;;19.40;99.90;;;;;;4992490;28;20218;-68
2023/08/03 03:05:03;;;;;;;0.60;0.40;;;19.30;99.90;;;;;;4993829;28;20191;-65
2023/08/03 03:07:32;;;;;;;1.65;0.52;;;19.30;99.90;;;;;;4995639;28;20202;-65
2023/08/03 03:09:58;;;;;;;0.50;0.40;;;19.30;99.90;;;;;;4993954;28;20184;-66
2023/08/03 03:12:23;;;;;;;0.77;0.40;;;19.20;99.90;;;;;;4975599;28;20214;-65
2023/08/03 03:14:49;;;;;;;0.30;0.30;;;19.20;99.90;;;;;;4977042;28;20306;-69
2023/08/03 03:17:17;;;;;;;0.50;0.30;;;19.20;99.90;;;;;;4985488;28;20470;-69
2023/08/03 03:19:43;;;;;;;0.63;0.40;;;19.20;99.90;;;;;;4977370;28;20215;-70
2023/08/03 03:22:08;;;;;;;0.30;0.20;;;19.10;99.90;;;;;;4985534;28;20230;-70
2023/08/03 03:24:36;;;;;;;0.52;0.40;;;19.10;99.90;;;;;;4993092;28;20350;-68
2023/08/03 03:27:02;;;;;;;0.20;0.15;;;19.00;99.90;;;;;;4990117;28;20192;-68
2023/08/03 03:29:30;;;;;;;0.50;0.20;;;18.80;99.90;;;;;;4990186;28;20190;-68
2023/08/03 03:31:57;;;;;;;0.30;0.20;;;18.80;99.90;;;;;;4993859;28;20203;-69
2023/08/03 03:34:25;;;;;;;1.00;0.30;;;18.60;99.90;;;;;;4995885;28;20195;-69
2023/08/03 03:36:51;;;;;;;0.30;0.30;;;18.50;99.90;;;;;;4996749;28;20199;-69
2023/08/03 03:39:16;;;;;;;0.40;0.20;;;18.40;99.90;;;;;;4990746;28;20187;-69
2023/08/03 03:41:45;;;;;;;0.88;0.30;;;18.30;99.90;;;;;;4994773;28;20199;-67
2023/08/03 03:44:10;;;;;;;0.20;0.20;;;18.30;99.90;;;;;;4993627;28;20179;-69
2023/08/03 03:46:36;;;;;;;0.55;0.20;;;18.20;99.90;;;;;;4994951;28;20190;-69
2023/08/03 03:49:01;;;;;;;0.50;0.20;;;18.20;99.90;;;;;;4994222;28;20230;-68
2023/08/03 03:51:27;;;;;;;0.22;0.20;;;18.20;99.90;;;;;;4995263;28;20246;-69
2023/08/03 03:53:55;;;;;;;0.98;0.28;;;18.20;99.90;;;;;;4994407;28;20171;-69
2023/08/03 03:56:20;;;;;;;1.30;0.30;;;18.20;99.90;;;;;;4994158;28;20262;-67
2023/08/03 03:58:48;;;;;;;0.30;0.30;;;18.20;99.90;;;;;;4991115;28;20319;-70
2023/08/03 04:01:18;;;;;;;0.70;0.25;;;18.20;99.90;;;;;;4991504;28;20218;-68
2023/08/03 04:03:44;;;;;;;0.95;0.40;;;18.20;99.90;;;;;;4983868;28;20164;-68
2023/08/03 04:06:09;;;;;;;0.47;0.40;;;18.20;99.90;;;;;;4991721;28;20201;-69
2023/08/03 04:08:35;;;;;;;0.73;0.30;;;18.20;99.90;;;;;;4987829;28;20227;-67
2023/08/03 04:11:01;;;;;;;0.95;0.30;;;18.20;99.90;;;;;;4992718;28;20203;-69
2023/08/03 04:13:26;;;;;;;0.50;0.30;;;18.20;99.90;;;;;;4987872;28;20267;-69
2023/08/03 04:15:52;;;;;;;0.65;0.30;;;18.20;99.90;;;;;;4990063;28;20401;-69
2023/08/03 04:18:17;;;;;;;0.25;0.25;;;18.20;99.90;;;;;;4993557;28;20183;-68
2023/08/03 04:20:43;;;;;;;0.20;0.20;;;18.20;99.90;;;;;;4989972;28;20179;-68
2023/08/03 04:23:09;;;;;;;0.22;0.20;;;18.30;99.90;;;;;;4992025;28;20201;-68
2023/08/03 04:25:34;;;;;;;1.45;0.20;;;18.30;99.90;;;;;;4993985;28;20182;-70
2023/08/03 04:28:02;;;;;;;0.98;0.20;;;18.30;99.90;;;;;;4994245;28;20210;-70
2023/08/03 04:30:30;;;;;;;0.17;0.17;;;18.30;99.90;;;;;;4991747;28;20167;-69
2023/08/03 04:32:56;;;;;;;0.15;0.15;;;18.30;99.90;;;;;;4985030;28;20238;-69
2023/08/03 04:35:24;;;;;;;0.47;0.20;;;18.30;99.90;;;;;;5002271;28;20203;-70
2023/08/03 04:37:49;;;;;;;0.10;0.10;;;18.30;99.90;;;;;;4994312;28;20186;-70
2023/08/03 04:40:15;;;;;;;0.20;0.20;;;18.40;99.90;;;;;;4994415;28;20282;-69
2023/08/03 04:42:41;;;;;;;0.20;0.10;;;18.40;99.90;;;;;;4993266;28;20303;-69
2023/08/03 04:45:07;;;;;;;0.10;0.10;;;18.40;99.90;;;;;;4990704;28;20214;-70
2023/08/03 04:47:32;;;;;;;0.35;0.20;;;18.40;99.90;;;;;;4991809;28;20187;-69
2023/08/03 04:49:58;;;;;;;0.10;0.10;;;18.30;99.90;;;;;;4993841;28;20187;-67
2023/08/03 04:52:23;;;;;;;0.40;0.30;;;18.30;99.90;;;;;;4991385;28;20211;-69
2023/08/03 04:54:51;;;;;;;0.20;0.20;;;18.30;99.90;;;;;;4992782;28;20185;-67
2023/08/03 04:57:17;;;;;;;0.95;0.30;;;18.30;99.90;;;;;;4976714;28;20184;-70
2023/08/03 04:59:42;;;;;;;0.90;0.28;;;18.30;99.90;;;;;;4991666;28;20325;-67
2023/08/03 05:02:12;;;;;;;0.77;0.30;;;18.20;99.90;;;;;;4992242;28;20222;-69
2023/08/03 05:04:40;;;;;;;1.20;0.30;;;18.30;99.90;;;;;;4993178;28;20179;-68
2023/08/03 05:07:06;;;;;;;0.77;0.30;;;18.30;99.90;;;;;;4987849;28;20187;-70
2023/08/03 05:09:31;;;;;;;0.63;0.30;;;18.20;99.90;;;;;;4988277;28;20215;-68
2023/08/03 05:11:59;;;;;;;0.10;0.10;;;18.30;99.90;;;;;;4993890;28;20219;-69
2023/08/03 05:14:25;;;;;;;1.90;0.30;;;18.30;99.90;;;;;;4992176;28;20186;-68
2023/08/03 05:16:50;;;;;;;0.73;0.40;;;18.20;99.90;;;;;;4983167;28;20203;-69
2023/08/03 05:19:18;;;;;;;0.70;0.52;;;18.20;99.90;;;;;;4986344;28;20188;-69
2023/08/03 05:21:48;;;;;;;0.57;0.40;;;18.20;99.90;;;;;;4990157;28;20187;-70
2023/08/03 05:24:14;;;;;;;0.98;0.50;;;18.30;99.90;;;;;;4992812;28;20175;-70
2023/08/03 05:26:40;;;;;;;0.98;0.40;;;18.30;99.90;;;;;;4990135;28;20187;-73
2023/08/03 05:29:11;;;;;;;1.05;0.50;;;18.30;99.90;;;;;;4993172;28;20183;-70
2023/08/03 05:31:36;;;;;;;0.85;0.30;;;18.40;99.90;;;;;;4993800;28;20226;-70
2023/08/03 05:34:02;;;;;;;3.42;0.30;;;18.40;99.90;;;;;;4989749;28;20204;-70
2023/08/03 05:36:30;;;;;;;0.57;0.22;;;18.40;99.90;;;;;;4996901;28;20206;-69
2023/08/03 05:38:55;;;;;;;0.40;0.20;;;18.50;99.90;;;;;;4993181;28;20179;-70
2023/08/03 05:41:27;;;;;;;0.32;0.10;;;18.50;99.90;;;;;;4994150;28;20190;-69
2023/08/03 05:43:55;;;;;;;0.50;0.40;;;18.60;99.90;;;;;;4994776;28;20226;-70
2023/08/03 05:46:28;;;;;;;0.57;0.30;;;18.60;99.90;;;;;;4988101;28;20183;-69
2023/08/03 05:48:54;;;;;;;1.55;0.40;;;18.60;99.90;;;;;;4997515;28;20187;-68
2023/08/03 05:51:25;;;;;;;0.40;0.30;;;18.70;99.90;;;;;;4979562;28;20218;-70
2023/08/03 05:53:51;;;;;;;0.57;0.30;;;18.70;99.90;;;;;;4982945;28;20282;-70
2023/08/03 05:56:20;;;;;;;0.35;0.22;;;18.70;99.90;;;;;;4996653;28;20210;-70
2023/08/03 05:58:47;;;;;;;1.27;0.30;;;18.70;99.90;;;;;;4995955;28;20511;-70
2023/08/03 06:01:13;;;;;;;0.15;0.15;;;18.70;99.90;;;;;;4996315;28;20172;-68
2023/08/03 06:03:43;;;;;;;0.30;0.20;;;18.60;99.90;;;;;;4992885;28;20199;-70
2023/08/03 06:06:11;;;;;;;0.38;0.20;;;18.60;99.90;;;;;;4991180;28;20275;-70
2023/08/03 06:08:43;;;;;;;0.55;0.20;;;18.70;99.90;;;;;;5008563;28;20180;-72
2023/08/03 06:11:09;;;;;;;1.50;0.40;;;18.60;99.90;;;;;;4993548;28;20219;-72
2023/08/03 06:13:39;;;;;;;0.40;0.40;;;18.70;99.90;;;;;;4989736;28;20222;-69
2023/08/03 06:16:08;;;;;;;0.30;0.30;;;18.70;99.90;;;;;;4988006;28;20206;-66
2023/08/03 06:18:59;;;;;;;0.68;0.10;;;18.80;99.90;;;;;;5011077;28;20184;-71
2023/08/03 06:21:27;;;;;;;0.20;0.20;;;18.90;99.90;;;;;;4992136;28;20195;-71
2023/08/03 06:23:57;;;;;;;0.30;0.20;;;19.00;99.90;;;;;;4996163;28;20210;-70
2023/08/03 06:26:24;;;;;;;0.35;0.30;;;19.00;99.90;;;;;;4996144;28;20193;-68
2023/08/03 06:28:56;;;;;;;0.30;0.20;;;19.10;99.90;;;;;;4997478;28;20182;-70
2023/08/03 06:31:35;;;;;;;0.13;0.10;;;19.20;99.90;;;;;;4997269;28;20211;-70
2023/08/03 06:34:06;;;;;;;0.40;0.20;;;19.30;99.90;;;;;;4991453;28;20178;-70
2023/08/03 06:36:35;;;;;;;0.17;0.10;;;19.30;99.90;;;;;;4995544;28;20271;-71
2023/08/03 06:39:01;;;;;;;0.32;0.20;;;19.40;99.90;;;;;;4997042;28;20238;-70
2023/08/03 06:41:27;;;;;;;0.82;0.32;;;19.40;99.90;;;;;;4994921;28;20186;-72
2023/08/03 06:43:54;;;;;;;0.30;0.20;;;19.40;99.90;;;;;;4995328;28;20383;-69
2023/08/03 06:46:20;;;;;;;0.73;0.30;;;19.50;99.90;;;;;;5003975;28;20183;-71
2023/08/03 06:48:48;;;;;;;0.50;0.30;;;19.50;99.90;;;;;;4989905;28;20514;-70
2023/08/03 06:51:16;;;;;;;0.32;0.28;;;19.60;99.90;;;;;;4989600;28;20203;-71
2023/08/03 06:53:42;;;;;;;0.35;0.30;;;19.60;99.90;;;;;;5008461;28;20186;-67
2023/08/03 06:56:10;;;;;;;1.27;0.35;;;19.60;99.90;;;;;;4989643;28;20179;-72
2023/08/03 06:58:36;;;;;;;0.28;0.10;;;19.70;99.90;;;;;;4996090;28;20210;-69
2023/08/03 07:01:04;;;;;;;0.50;0.20;;;19.70;99.90;;;;;;4993076;28;20179;-71
2023/08/03 07:03:30;;;;;;;2.10;0.20;;;19.80;99.90;;;;;;4996555;28;20190;-71
2023/08/03 07:05:58;;;;;;;2.30;0.50;;;19.80;99.90;;;;;;4992229;28;20206;-71
2023/08/03 07:08:24;;;;;;;1.08;0.40;;;19.90;99.90;;;;;;4990068;28;20246;-69
2023/08/03 07:10:49;;;;;;;0.70;0.20;;;20.00;99.90;;;;;;4993734;28;20183;-71
2023/08/03 07:13:17;;;;;;;0.50;0.28;;;20.00;99.90;;;;;;4991446;28;20215;-71
2023/08/03 07:15:43;;;;;;;0.22;0.20;;;20.10;99.90;;;;;;4988910;28;20176;-69
2023/08/03 07:18:11;;;;;;;0.30;0.20;;;20.10;99.90;;;;;;5007544;28;20184;-72
2023/08/03 07:20:37;;;;;;;0.50;0.30;;;20.20;99.90;;;;;;4994349;28;20263;-68
2023/08/03 07:23:03;;;;;;;0.60;0.30;;;20.30;99.90;;;;;;4992643;28;20411;-71
2023/08/03 07:25:32;;;;;;;0.60;0.40;;;20.40;99.90;;;;;;4994644;28;20199;-71
2023/08/03 07:27:57;;;;;;;0.75;0.35;;;20.40;99.90;;;;;;4993631;28;20214;-72
2023/08/03 07:30:23;;;;;;;0.40;0.30;;;20.50;99.90;;;;;;4991290;28;20195;-71
2023/08/03 07:32:51;;;;;;;0.22;0.20;;;20.50;99.90;;;;;;5007095;28;20294;-72
2023/08/03 07:35:17;;;;;;;0.68;0.20;;;20.60;99.90;;;;;;4990949;28;20214;-72
2023/08/03 07:37:44;;;;;;;0.60;0.40;;;20.60;99.90;;;;;;4981988;28;20211;-72
2023/08/03 07:40:10;;;;;;;0.30;0.20;;;20.70;99.90;;;;;;4994335;28;20168;-72
2023/08/03 07:42:36;;;;;;;0.38;0.20;;;20.70;99.90;;;;;;4996311;28;20193;-72
2023/08/03 07:45:02;;;;;;;0.30;0.30;;;20.80;99.90;;;;;;4993758;28;20226;-74
2023/08/03 07:47:34;;;;;;;0.30;0.20;;;20.80;99.90;;;;;;4993532;28;20196;-72
2023/08/03 07:50:00;;;;;;;0.90;0.30;;;20.80;99.90;;;;;;4980796;28;20291;-72
2023/08/03 07:52:26;;;;;;;0.30;0.17;;;20.90;99.90;;;;;;5006471;28;20294;-72
2023/08/03 07:54:55;;;;;;;0.60;0.30;;;20.90;99.90;;;;;;4999152;28;20178;-73
2023/08/03 07:57:23;;;;;;;0.75;0.28;;;20.90;99.90;;;;;;4996501;28;20176;-72
2023/08/03 07:59:51;;;;;;;0.80;0.40;;;21.00;99.90;;;;;;5007123;28;20180;-72
2023/08/03 08:02:20;;;;;;;2.15;0.50;;;21.00;99.90;;;;;;4984836;28;20183;-72
2023/08/03 08:04:50;;;;;;;0.30;0.17;;;21.00;99.90;;;;;;4993642;28;20202;-71
2023/08/03 08:07:16;;;;;;;0.32;0.30;;;21.00;99.90;;;;;;4992446;28;20326;-72
2023/08/03 08:09:42;;;;;;;0.30;0.20;;;21.10;99.90;;;;;;4990980;28;20195;-68
2023/08/03 08:12:08;;;;;;;0.30;0.20;;;21.10;99.90;;;;;;4982329;28;20203;-73
2023/08/03 08:14:38;;;;;;;0.95;0.50;;;21.10;99.90;;;;;;4991332;28;20286;-70
2023/08/03 08:17:04;;;;;;;0.40;0.30;;;21.10;99.90;;;;;;4993453;28;20171;-73
2023/08/03 08:19:30;;;;;;;0.38;0.38;;;21.10;99.90;;;;;;4991280;28;20210;-73
2023/08/03 08:21:56;;;;;;;0.35;0.20;;;21.20;99.90;;;;;;4993137;28;20221;-72
2023/08/03 08:24:21;;;;;;;0.35;0.20;;;21.20;99.90;;;;;;5001776;28;20215;-68
2023/08/03 08:26:47;;;;;;;0.68;0.30;;;21.20;99.90;;;;;;4994033;28;20370;-73
2023/08/03 08:29:15;;;;;;;0.30;0.10;;;21.20;99.90;;;;;;4991695;28;20242;-69
2023/08/03 08:31:45;;;;;;;0.10;0.10;;;21.20;99.90;;;;;;4981318;28;20199;-69
2023/08/03 08:34:13;;;;;;;0.30;0.08;;;21.20;99.90;;;;;;4999260;28;20199;-72
2023/08/03 08:36:38;;;;;;;0.20;0.20;;;21.20;99.90;;;;;;4989497;28;20179;-68
2023/08/03 08:39:04;;;;;;;0.30;0.20;;;21.20;99.90;;;;;;4991255;28;20183;-71
2023/08/03 08:41:30;;;;;;;0.15;0.03;;;21.30;99.90;;;;;;4991387;28;20194;-72
2023/08/03 08:43:57;;;;;;;0.57;0.30;;;21.30;99.90;;;;;;4992820;28;20712;-73
2023/08/03 08:46:23;;;;;;;0.22;0.20;;;21.30;99.90;;;;;;4992741;28;20265;-71
2023/08/03 08:48:49;;;;;;;0.95;0.30;;;21.40;99.90;;;;;;4994980;28;20195;-72
2023/08/03 08:51:17;;;;;;;0.45;0.45;;;21.50;99.90;;;;;;4988705;28;20274;-72
2023/08/03 08:53:43;;;;;;;0.55;0.30;;;21.40;99.90;;;;;;4990948;28;20302;-73
2023/08/03 08:56:08;;;;;;;0.30;0.20;;;21.40;99.90;;;;;;4990123;28;20247;-71
2023/08/03 08:58:38;;;;;;;0.93;0.30;;;21.50;99.90;;;;;;4993532;28;20180;-72
2023/08/03 09:01:05;;;;;;;0.40;0.30;;;21.50;99.90;;;;;;4990234;28;20206;-73
2023/08/03 09:03:47;;;;;;;0.68;0.35;;;21.50;99.90;;;;;;4989105;28;20211;-73
2023/08/03 09:06:15;;;;;;;1.08;0.30;;;21.50;99.90;;;;;;4990169;28;20199;-73
2023/08/03 09:08:58;;;;;;;1.17;0.40;;;21.40;99.90;;;;;;4988944;28;20179;-73
2023/08/03 09:11:40;;;;;;;0.63;0.47;;;21.50;99.90;;;;;;4996543;28;20203;-72
2023/08/03 09:14:10;;;;;;;0.73;0.30;;;21.50;99.90;;;;;;4996610;28;20492;-72
2023/08/03 09:16:37;;;;;;;1.90;0.50;;;21.50;99.90;;;;;;4986263;28;20227;-72
2023/08/03 09:19:05;;;;;;;0.43;0.30;;;21.60;99.90;;;;;;4992303;28;20241;-73
2023/08/03 09:21:30;;;;;;;1.52;0.50;;;21.60;99.90;;;;;;4997183;28;21877;-70
2023/08/03 09:23:59;;;;;;;0.38;0.30;;;21.60;99.90;;;;;;4992980;28;20207;-72
2023/08/03 09:26:25;;;;;;;1.27;0.40;;;21.70;99.90;;;;;;4994227;28;20243;-71
2023/08/03 09:28:53;;;;;;;0.50;0.30;;;21.70;99.90;;;;;;4997692;28;20287;-73
2023/08/03 09:31:24;;;;;;;1.33;0.30;;;21.80;99.90;;;;;;4994351;28;20199;-69
2023/08/03 09:34:00;;;;;;;1.05;0.30;;;21.80;99.90;;;;;;4996850;28;20202;-72
2023/08/03 09:36:27;;;;;;;0.50;0.40;;;21.80;99.90;;;;;;4990252;28;20221;-71
2023/08/03 09:39:09;;;;;;;0.68;0.60;;;21.70;99.90;;;;;;4996814;28;20171;-69
2023/08/03 09:41:36;;;;;;;0.80;0.35;;;21.50;99.90;;;;;;5006395;28;20274;-68
2023/08/03 09:44:07;;;;;;;1.15;0.47;;;21.50;99.90;;;;;;4996333;28;20179;-70
2023/08/03 09:46:34;;;;;;;0.40;0.20;;;21.40;99.90;;;;;;4995290;28;20222;-71
2023/08/03 09:49:02;;;;;;;0.50;0.30;;;21.40;99.90;;;;;;5014374;28;20263;-71
2023/08/03 09:51:30;;;;;;;1.17;0.30;;;21.40;99.90;;;;;;5015816;28;20480;-70
2023/08/03 09:54:12;;;;;;;0.85;0.40;;;21.40;99.90;;;;;;5016311;28;20255;-68
2023/08/03 09:56:41;;;;;;;0.90;0.40;;;21.40;99.90;;;;;;5013820;28;20163;-69
2023/08/03 09:59:19;;;;;;;0.30;0.30;;;21.40;99.90;;;;;;5000541;28;20318;-70
2023/08/03 10:01:45;;;;;;;0.57;0.50;;;21.40;99.90;;;;;;4995927;28;20203;-73
2023/08/03 10:04:15;;;;;;;0.45;0.43;;;21.40;99.90;;;;;;4989568;28;20211;-71
2023/08/03 10:06:44;;;;;;;0.30;0.30;;;21.50;99.90;;;;;;4990662;28;20267;-72
2023/08/03 10:09:18;;;;;;;1.45;0.25;;;21.50;99.90;;;;;;4991518;28;20183;-69
2023/08/03 10:11:52;;;;;;;1.05;0.40;;;21.50;99.90;;;;;;4995527;28;20211;-72
2023/08/03 10:14:25;;;;;;;0.47;0.45;;;21.50;99.90;;;;;;5001185;28;20237;-72
2023/08/03 10:16:52;;;;;;;0.30;0.25;;;21.40;99.90;;;;;;4984226;28;20295;-71
2023/08/03 10:19:18;;;;;;;1.15;0.30;;;21.40;99.90;;;;;;4991062;28;20266;-71
2023/08/03 10:21:47;;;;;;;0.45;0.32;;;21.30;99.90;;;;;;5004308;28;20202;-72
2023/08/03 10:24:14;;;;;;;0.30;0.20;;;21.10;99.90;;;;;;4989068;28;20171;-71
2023/08/03 10:26:48;;;;;;;0.63;0.40;;;20.90;99.90;;;;;;4994966;28;20175;-72
2023/08/03 10:29:16;;;;;;;0.82;0.40;;;20.80;99.90;;;;;;4994040;28;20394;-71
2023/08/03 10:31:55;;;;;;;1.60;0.43;;;20.70;99.90;;;;;;5007466;28;20203;-71
2023/08/03 10:34:31;;;;;;;0.70;0.50;;;20.70;99.90;;;;;;4993971;28;20171;-71
2023/08/03 10:36:57;;;;;;;0.93;0.43;;;20.70;99.90;;;;;;5011303;28;20202;-71
2023/08/03 10:39:48;;;;;;;0.40;0.40;;;20.60;99.90;;;;;;4992877;28;20182;-69
2023/08/03 10:42:17;;;;;;;1.33;0.40;;;20.50;99.90;;;;;;5006237;28;20285;-71
2023/08/03 10:44:43;;;;;;;0.90;0.47;;;20.40;99.90;;;;;;4994882;28;20195;-73
2023/08/03 10:47:24;;;;;;;1.40;0.50;;;20.40;99.90;;;;;;4995011;28;20210;-72
2023/08/03 10:49:50;;;;;;;0.40;0.30;;;20.40;99.90;;;;;;4957896;28;1124428;-69
2023/08/03 10:52:24;;;;;;;0.50;0.40;;;20.40;99.90;;;;;;4996055;28;20476;-72
2023/08/03 10:54:50;;;;;;;0.50;0.38;;;20.40;99.90;;;;;;4996069;28;20198;-70
2023/08/03 10:57:30;;;;;;;1.30;0.90;;;20.40;99.90;;;;;;4995993;28;20299;-68
2023/08/03 10:59:59;;;;;;;1.10;0.73;;;20.50;99.90;;;;;;4994695;28;20199;-70
2023/08/03 11:02:25;;;;;;;1.08;0.50;;;20.60;99.90;;;;;;4994223;28;20203;-69
2023/08/03 11:04:55;;;;;;;0.40;0.30;;;20.60;99.90;;;;;;4990439;28;20171;-73
2023/08/03 11:07:32;;;;;;;0.32;0.30;;;20.80;99.90;;;;;;4997527;28;20179;-72
2023/08/03 11:10:00;;;;;;;0.63;0.20;;;20.90;99.90;;;;;;4992547;28;20211;-71
2023/08/03 11:12:27;;;;;;;0.35;0.32;;;21.10;99.90;;;;;;5011870;28;20214;-70
2023/08/03 11:14:59;;;;;;;0.43;0.30;;;21.30;99.90;;;;;;4987872;28;20184;-70
2023/08/03 11:17:27;;;;;;;0.52;0.30;;;21.40;99.90;;;;;;4988250;28;20207;-66
2023/08/03 11:19:56;;;;;;;0.55;0.38;;;21.60;99.90;;;;;;4998962;28;20179;-65
2023/08/03 11:22:23;;;;;;;0.70;0.40;;;21.60;99.90;;;;;;4994125;28;20203;-66
2023/08/03 11:24:51;;;;;;;0.73;0.20;;;21.70;99.90;;;;;;4993942;28;20179;-66
2023/08/03 11:27:18;;;;;;;1.25;0.70;;;21.80;99.90;;;;;;4995666;28;20219;-64
2023/08/03 11:29:44;;;;;;;0.73;0.50;;;21.80;99.90;;;;;;4994892;28;20198;-66
2023/08/03 11:32:11;;;;;;;1.08;0.50;;;21.80;99.90;;;;;;4994568;28;20218;-66
2023/08/03 11:34:39;;;;;;;1.52;0.55;;;21.90;99.90;;;;;;4993714;28;20185;-66
2023/08/03 11:37:06;;;;;;;1.02;0.55;;;22.00;99.90;;;;;;4994922;28;20171;-66
2023/08/03 11:39:34;;;;;;;1.40;0.50;;;22.10;99.90;;;;;;4994473;28;20176;-65
2023/08/03 11:42:03;;;;;;;2.53;0.50;;;22.20;99.90;;;;;;4994006;28;20190;-65
2023/08/03 11:44:28;;;;;;;0.57;0.38;;;22.30;99.90;;;;;;4991794;28;20188;-65
2023/08/03 11:47:03;;;;;;;1.15;0.50;;;22.50;99.90;;;;;;4995083;28;20186;-65
2023/08/03 11:49:30;;;;;;;2.45;0.43;;;22.60;99.90;;;;;;4995221;28;20190;-66
2023/08/03 11:51:59;;;;;;;0.90;0.40;;;22.80;99.90;;;;;;4994772;28;20220;-66
2023/08/03 11:54:29;;;;;;;1.17;0.40;;;22.90;99.90;;;;;;5011554;28;20167;-66
2023/08/03 11:58:07;;;;;;;1.60;0.40;;;23.10;99.90;;;;;;4995007;28;20206;-67
2023/08/03 11:59:48;;;;;;;0.73;0.47;;;23.30;99.90;;;;;;4996920;28;20167;-66
2023/08/03 12:02:14;;;;;;;1.17;0.52;;;23.40;99.90;;;;;;4993189;28;20478;-67
2023/08/03 12:04:44;;;;;;;1.13;0.68;;;23.60;99.90;;;;;;4994508;28;20179;-67
2023/08/03 12:07:15;;;;;;;2.15;0.70;;;23.60;99.90;;;;;;4993560;28;20203;-66
2023/08/03 12:09:41;;;;;;;0.80;0.50;;;23.70;99.90;;;;;;4993960;28;20539;-65
2023/08/03 12:12:11;;;;;;;2.78;0.70;;;23.70;99.90;;;;;;4986382;28;20211;-65
2023/08/03 12:14:40;;;;;;;1.38;0.60;;;23.80;99.90;;;;;;4990430;28;20438;-65
2023/08/03 12:17:12;;;;;;;0.68;0.55;;;23.80;99.90;;;;;;4991373;28;20242;-66
2023/08/03 12:19:40;;;;;;;2.10;0.80;;;23.90;99.90;;;;;;4989276;28;20198;-65
2023/08/03 12:22:06;;;;;;;1.10;0.60;;;24.00;99.90;;;;;;4993693;28;20234;-65
2023/08/03 12:24:34;;;;;;;3.33;0.77;;;24.10;99.90;;;;;;4992139;28;20183;-64
2023/08/03 12:27:04;;;;;;;1.67;0.60;;;24.20;99.90;;;;;;4982571;28;20238;-66
2023/08/03 12:29:32;;;;;;;1.25;0.70;;;24.20;99.90;;;;;;4971535;28;20211;-65
2023/08/03 12:32:02;;;;;;;1.05;0.57;;;24.30;99.90;;;;;;4996588;28;21870;-66
2023/08/03 12:34:28;;;;;;;1.27;0.80;;;24.30;99.90;;;;;;4994569;28;20230;-66
2023/08/03 12:36:53;;;;;;;1.77;0.77;;;24.20;99.90;;;;;;4993560;28;20199;-66
2023/08/03 12:39:22;;;;;;;1.27;0.70;;;24.20;99.90;;;;;;4996610;28;20210;-65
2023/08/03 12:41:47;;;;;;;1.63;0.70;;;24.10;99.90;;;;;;4988785;28;20207;-66
2023/08/03 12:44:15;;;;;;;1.75;0.73;;;24.00;99.90;;;;;;4987147;28;20210;-66
2023/08/03 12:46:41;;;;;;;1.10;0.60;;;24.00;99.90;;;;;;4993822;28;20179;-65
2023/08/03 12:49:07;;;;;;;4.95;0.88;;;23.90;99.90;;;;;;5047965;23;20252;-66
2023/08/03 12:51:35;;;;;;;1.02;0.57;;;23.90;99.90;;;;;;5012941;28;20533;-65
2023/08/03 12:54:02;;;;;;;1.60;0.60;;;23.80;99.90;;;;;;5020320;28;20247;-66
2023/08/03 12:56:30;;;;;;;2.33;0.90;;;23.80;99.90;;;;;;5014122;28;20175;-66